Time;durP1;ratioP1;P1;durP2;ratioP2;P2;SDS_P1;SDS_P2;PMS_P1;PMS_P2;Temp;Humidity;BMP_temperature;BMP_pressure;BME280_temperature;BME280_humidity;BME280_pressure;Samples;Min_cycle;Max_cycle;Signal;HPM_P1;HPM_P2
2023/03/15 00:00:42;;;;;;;7.23;2.33;;;3.90;99.90;;;;;;5083132;28;20186;-83
2023/03/15 00:03:08;;;;;;;8.33;2.30;;;3.90;99.90;;;;;;5064499;28;20182;-82
2023/03/15 00:05:34;;;;;;;6.63;3.03;;;4.00;99.90;;;;;;5082267;28;20300;-82
2023/03/15 00:08:00;;;;;;;9.43;2.93;;;4.00;99.90;;;;;;5081419;28;20171;-82
2023/03/15 00:10:26;;;;;;;11.27;2.23;;;4.00;99.90;;;;;;5063074;28;20225;-82
2023/03/15 00:12:52;;;;;;;7.03;2.37;;;4.00;99.90;;;;;;5082448;28;20594;-82
2023/03/15 00:15:18;;;;;;;10.57;2.60;;;4.00;99.90;;;;;;5081204;28;20167;-83
2023/03/15 00:17:43;;;;;;;5.03;2.27;;;4.10;99.90;;;;;;5081989;28;20193;-82
2023/03/15 00:20:11;;;;;;;12.10;2.80;;;4.10;99.90;;;;;;5061621;28;20167;-83
2023/03/15 00:22:36;;;;;;;6.50;3.03;;;4.10;99.90;;;;;;5080751;28;20191;-83
2023/03/15 00:25:02;;;;;;;6.87;2.80;;;4.00;99.90;;;;;;5062783;28;20205;-82
2023/03/15 00:27:28;;;;;;;8.67;2.93;;;4.00;99.90;;;;;;5083049;28;20229;-82
2023/03/15 00:29:53;;;;;;;6.80;2.57;;;3.90;99.90;;;;;;5080307;28;20300;-82
2023/03/15 00:32:19;;;;;;;8.07;2.87;;;3.90;99.90;;;;;;5062459;28;20195;-82
2023/03/15 00:34:47;;;;;;;7.47;3.00;;;3.80;99.90;;;;;;5080974;28;20183;-82
2023/03/15 00:37:15;;;;;;;9.53;2.83;;;3.70;99.90;;;;;;5082419;28;20167;-82
2023/03/15 00:39:44;;;;;;;8.97;3.37;;;3.60;99.90;;;;;;5063889;28;20208;-82
2023/03/15 00:42:10;;;;;;;5.70;2.40;;;3.40;99.90;;;;;;5083914;28;20252;-82
2023/03/15 00:44:36;;;;;;;5.80;2.90;;;3.40;99.90;;;;;;5082921;28;20193;-81
2023/03/15 00:47:02;;;;;;;7.67;2.60;;;3.30;99.90;;;;;;5083820;28;20172;-81
2023/03/15 00:49:27;;;;;;;5.60;2.37;;;3.20;99.90;;;;;;5082673;28;20175;-82
2023/03/15 00:51:56;;;;;;;5.73;3.07;;;3.10;99.90;;;;;;5081910;28;20201;-81
2023/03/15 00:54:22;;;;;;;4.43;2.43;;;3.10;99.90;;;;;;5064582;28;20175;-81
2023/03/15 00:56:48;;;;;;;8.17;2.67;;;3.10;99.90;;;;;;5082295;28;20203;-81
2023/03/15 00:59:14;;;;;;;6.87;3.83;;;3.10;99.90;;;;;;5063594;28;20183;-81
2023/03/15 01:01:43;;;;;;;10.50;4.57;;;3.00;99.90;;;;;;5083897;28;20230;-81
2023/03/15 01:04:12;;;;;;;13.27;7.60;;;3.00;99.90;;;;;;5065030;28;20182;-81
2023/03/15 01:06:39;;;;;;;15.37;7.50;;;3.00;99.90;;;;;;5065082;28;20257;-82
2023/03/15 01:09:04;;;;;;;14.43;6.50;;;3.10;99.90;;;;;;5082772;28;20166;-80
2023/03/15 01:11:30;;;;;;;15.77;7.57;;;3.00;99.90;;;;;;5082319;28;20197;-81
2023/03/15 01:13:57;;;;;;;14.33;7.20;;;3.10;99.90;;;;;;5083782;28;20231;-81
2023/03/15 01:16:24;;;;;;;15.60;6.90;;;3.10;99.90;;;;;;5066043;28;20274;-81
2023/03/15 01:18:52;;;;;;;16.20;6.83;;;3.10;99.90;;;;;;5083775;28;20246;-82
2023/03/15 01:21:19;;;;;;;14.37;6.10;;;3.10;99.90;;;;;;5083945;28;20187;-81
2023/03/15 01:23:45;;;;;;;9.07;4.40;;;3.10;99.90;;;;;;5084238;28;20186;-81
2023/03/15 01:26:13;;;;;;;8.77;4.00;;;3.00;99.90;;;;;;5083284;28;20199;-81
2023/03/15 01:28:39;;;;;;;6.77;3.80;;;3.00;99.90;;;;;;5082887;28;20174;-82
2023/03/15 01:31:05;;;;;;;5.83;3.40;;;3.00;99.90;;;;;;5064129;28;20197;-80
2023/03/15 01:33:31;;;;;;;4.73;3.00;;;3.00;99.90;;;;;;5082781;28;20228;-80
2023/03/15 01:36:01;;;;;;;7.03;3.40;;;2.90;99.90;;;;;;5064763;28;20179;-80
2023/03/15 01:38:27;;;;;;;4.30;3.10;;;2.90;99.90;;;;;;5082420;28;20155;-80
2023/03/15 01:40:52;;;;;;;8.20;4.20;;;2.90;99.90;;;;;;5083243;28;20194;-80
2023/03/15 01:43:20;;;;;;;9.77;5.83;;;2.90;99.90;;;;;;5062415;28;20269;-81
2023/03/15 01:46:01;;;;;;;9.20;5.77;;;2.90;99.90;;;;;;5061768;28;20637;-81
2023/03/15 01:48:33;;;;;;;6.17;3.53;;;3.00;99.90;;;;;;5080852;28;20520;-81
2023/03/15 01:51:02;;;;;;;3.83;2.93;;;2.90;99.90;;;;;;5062684;28;20199;-81
2023/03/15 01:53:30;;;;;;;4.00;2.30;;;2.90;99.90;;;;;;5062493;28;20175;-81
2023/03/15 01:55:57;;;;;;;3.90;2.60;;;2.90;99.90;;;;;;5079908;28;20213;-81
2023/03/15 01:58:25;;;;;;;3.43;2.30;;;2.80;99.90;;;;;;5062095;28;20275;-81
2023/03/15 02:00:51;;;;;;;3.47;2.47;;;2.80;99.90;;;;;;5061830;28;20175;-82
2023/03/15 02:03:21;;;;;;;3.13;2.30;;;2.80;99.90;;;;;;5062385;28;20310;-82
2023/03/15 02:05:53;;;;;;;3.23;2.47;;;2.80;99.90;;;;;;5064555;28;20190;-81
2023/03/15 02:08:24;;;;;;;3.37;2.50;;;2.80;99.90;;;;;;5082617;28;20159;-81
2023/03/15 02:10:52;;;;;;;4.17;2.73;;;2.70;99.90;;;;;;5083256;28;20155;-82
2023/03/15 02:13:23;;;;;;;5.67;2.80;;;2.80;99.90;;;;;;5063906;28;20258;-80
2023/03/15 02:15:52;;;;;;;6.00;2.97;;;2.80;99.90;;;;;;5082436;28;20189;-82
2023/03/15 02:18:18;;;;;;;5.53;3.77;;;2.80;99.90;;;;;;5080691;28;20217;-82
2023/03/15 02:20:59;;;;;;;4.90;3.27;;;2.80;99.90;;;;;;5064486;28;20194;-82
2023/03/15 02:23:25;;;;;;;6.07;3.77;;;2.90;99.90;;;;;;5083291;28;20159;-82
2023/03/15 02:25:59;;;;;;;4.93;3.63;;;2.90;99.90;;;;;;5065252;28;20206;-82
2023/03/15 02:28:25;;;;;;;9.97;4.47;;;2.90;99.90;;;;;;5064660;28;20170;-81
2023/03/15 02:30:51;;;;;;;7.23;4.97;;;3.00;99.90;;;;;;5083701;28;20167;-82
2023/03/15 02:33:25;;;;;;;7.87;5.00;;;3.00;99.90;;;;;;5065193;28;20695;-82
2023/03/15 02:35:51;;;;;;;8.57;5.93;;;3.00;99.90;;;;;;5064105;28;20623;-82
2023/03/15 02:38:17;;;;;;;9.50;5.57;;;3.00;99.90;;;;;;5064850;28;20179;-82
2023/03/15 02:40:45;;;;;;;8.40;4.87;;;3.10;99.90;;;;;;5084719;28;20649;-82
2023/03/15 02:43:18;;;;;;;7.23;5.30;;;3.10;99.90;;;;;;5065728;28;20193;-81
2023/03/15 02:45:45;;;;;;;9.07;6.10;;;3.10;99.90;;;;;;5083795;28;20187;-82
2023/03/15 02:48:11;;;;;;;7.67;5.57;;;3.10;99.90;;;;;;5065894;28;20178;-81
2023/03/15 02:50:37;;;;;;;7.17;5.73;;;3.10;99.90;;;;;;5084324;28;20631;-81
2023/03/15 02:53:03;;;;;;;7.57;5.93;;;3.20;99.90;;;;;;5065439;28;20173;-82
2023/03/15 02:55:31;;;;;;;8.23;5.87;;;3.20;99.90;;;;;;5066356;28;20232;-81
2023/03/15 02:57:57;;;;;;;9.27;6.20;;;3.20;99.90;;;;;;5066522;28;20183;-82
2023/03/15 03:00:23;;;;;;;8.03;6.20;;;3.20;99.90;;;;;;5065464;28;20578;-81
2023/03/15 03:02:48;;;;;;;10.23;6.53;;;3.20;99.90;;;;;;5065842;28;20195;-82
2023/03/15 03:05:15;;;;;;;7.00;5.87;;;3.30;99.90;;;;;;5066001;28;20210;-81
2023/03/15 03:07:41;;;;;;;9.87;6.97;;;3.30;99.90;;;;;;5065665;28;20182;-82
2023/03/15 03:10:09;;;;;;;9.73;6.97;;;3.30;99.90;;;;;;5084561;28;20174;-81
2023/03/15 03:12:35;;;;;;;10.83;7.27;;;3.30;99.90;;;;;;5084156;28;20213;-81
2023/03/15 03:15:01;;;;;;;10.10;7.23;;;3.30;99.90;;;;;;5066793;28;20183;-81
2023/03/15 03:17:27;;;;;;;9.53;6.50;;;3.30;99.90;;;;;;5066760;28;20191;-81
2023/03/15 03:19:52;;;;;;;11.17;7.47;;;3.30;99.90;;;;;;5068380;28;20312;-81
2023/03/15 03:22:18;;;;;;;8.93;5.63;;;3.20;99.90;;;;;;5067185;28;20233;-81
2023/03/15 03:24:44;;;;;;;8.77;5.30;;;3.20;99.90;;;;;;5068366;28;20175;-81
2023/03/15 03:27:16;;;;;;;8.10;5.47;;;3.00;99.90;;;;;;5086190;28;20197;-81
2023/03/15 03:29:41;;;;;;;5.23;4.73;;;3.00;99.90;;;;;;5086634;28;20224;-81
2023/03/15 03:32:07;;;;;;;6.43;4.43;;;2.90;99.90;;;;;;5068377;28;20258;-81
2023/03/15 03:34:33;;;;;;;5.07;4.07;;;2.80;99.90;;;;;;5085732;28;20569;-80
2023/03/15 03:36:59;;;;;;;4.23;3.27;;;2.80;99.90;;;;;;5068095;28;20321;-81
2023/03/15 03:39:24;;;;;;;6.00;3.60;;;2.70;99.90;;;;;;5067877;28;20179;-80
2023/03/15 03:41:50;;;;;;;4.20;3.40;;;2.60;99.90;;;;;;5085289;28;20541;-80
2023/03/15 03:44:17;;;;;;;5.30;3.53;;;2.50;99.90;;;;;;5066534;28;20556;-80
2023/03/15 03:46:42;;;;;;;3.67;3.33;;;2.50;99.90;;;;;;5084172;28;20203;-79
2023/03/15 03:49:08;;;;;;;3.73;3.30;;;2.40;99.90;;;;;;5065724;28;20186;-80
2023/03/15 03:51:34;;;;;;;3.93;2.97;;;2.30;99.90;;;;;;5083232;28;20274;-80
2023/03/15 03:54:00;;;;;;;4.60;2.90;;;2.20;99.90;;;;;;5082645;28;20241;-80
2023/03/15 03:56:26;;;;;;;3.40;3.03;;;2.20;99.90;;;;;;5064991;28;20229;-80
2023/03/15 03:58:51;;;;;;;6.30;2.80;;;2.20;99.90;;;;;;5081440;28;20175;-80
2023/03/15 04:01:17;;;;;;;5.10;3.13;;;2.20;99.90;;;;;;5082282;28;20573;-80
2023/03/15 04:03:43;;;;;;;3.40;2.80;;;2.20;99.90;;;;;;5064029;28;20622;-80
2023/03/15 04:06:08;;;;;;;3.57;2.77;;;2.30;99.90;;;;;;5081740;28;20258;-80
2023/03/15 04:08:34;;;;;;;4.77;2.97;;;2.30;99.90;;;;;;5063914;28;20179;-79
2023/03/15 04:11:02;;;;;;;4.10;3.03;;;2.30;99.90;;;;;;5082898;28;20264;-80
2023/03/15 04:13:30;;;;;;;4.43;3.50;;;2.30;99.90;;;;;;5064490;28;20175;-80
2023/03/15 04:15:56;;;;;;;4.43;3.67;;;2.20;99.90;;;;;;5082886;28;20182;-80
2023/03/15 04:18:21;;;;;;;4.30;3.83;;;2.30;99.90;;;;;;5082890;28;20200;-80
2023/03/15 04:20:47;;;;;;;8.93;4.17;;;2.30;99.90;;;;;;5065427;28;20179;-80
2023/03/15 04:23:14;;;;;;;5.43;3.93;;;2.20;99.90;;;;;;5084313;28;20175;-80
2023/03/15 04:25:39;;;;;;;5.07;4.17;;;2.30;99.90;;;;;;5065551;28;20198;-80
2023/03/15 04:28:09;;;;;;;8.33;5.77;;;2.30;99.90;;;;;;5084109;28;20582;-80
2023/03/15 04:30:35;;;;;;;7.47;6.40;;;2.30;99.90;;;;;;5083807;28;20551;-81
2023/03/15 04:33:02;;;;;;;10.10;5.70;;;2.30;99.90;;;;;;5084282;28;20174;-80
2023/03/15 04:35:35;;;;;;;7.27;5.47;;;2.30;99.90;;;;;;5065062;28;20526;-80
2023/03/15 04:38:02;;;;;;;7.00;4.77;;;2.30;99.90;;;;;;5083278;28;20167;-80
2023/03/15 04:40:29;;;;;;;5.27;4.63;;;2.30;99.90;;;;;;5064937;28;20670;-80
2023/03/15 04:42:55;;;;;;;6.33;4.77;;;2.20;99.90;;;;;;5084121;28;20186;-80
2023/03/15 04:45:24;;;;;;;5.70;5.03;;;2.20;99.90;;;;;;5084164;28;20216;-80
2023/03/15 04:47:51;;;;;;;6.87;4.53;;;2.20;99.90;;;;;;5064954;28;20170;-80
2023/03/15 04:50:17;;;;;;;5.23;4.53;;;2.30;99.90;;;;;;5082291;28;20213;-81
2023/03/15 04:52:43;;;;;;;7.37;5.40;;;2.30;99.90;;;;;;5083080;28;20202;-80
2023/03/15 04:55:09;;;;;;;6.77;5.43;;;2.30;99.90;;;;;;5082622;28;20175;-80
2023/03/15 04:57:35;;;;;;;6.90;5.30;;;2.30;99.90;;;;;;5081920;28;20622;-80
2023/03/15 05:00:01;;;;;;;6.47;5.33;;;2.30;99.90;;;;;;5063634;28;20175;-80
2023/03/15 05:02:26;;;;;;;7.77;5.83;;;2.30;99.90;;;;;;5082089;28;20202;-80
2023/03/15 05:04:52;;;;;;;7.00;5.70;;;2.30;99.90;;;;;;5085944;28;20265;-82
2023/03/15 05:07:17;;;;;;;6.77;5.63;;;2.30;99.90;;;;;;5075211;28;20216;-81
2023/03/15 05:09:45;;;;;;;7.27;6.10;;;2.40;99.90;;;;;;5097613;28;20179;-81
2023/03/15 05:12:11;;;;;;;7.37;5.70;;;2.40;99.90;;;;;;5099017;28;20194;-82
2023/03/15 05:14:37;;;;;;;7.30;5.67;;;2.40;99.90;;;;;;5086620;28;20201;-81
2023/03/15 05:17:03;;;;;;;7.13;5.93;;;2.40;99.90;;;;;;5083440;28;20186;-81
2023/03/15 05:19:33;;;;;;;8.00;6.07;;;2.40;99.90;;;;;;5102789;28;20169;-80
2023/03/15 05:21:58;;;;;;;9.43;6.60;;;2.40;99.90;;;;;;5102994;28;20186;-81
2023/03/15 05:24:24;;;;;;;10.53;7.10;;;2.40;99.90;;;;;;5080079;28;20665;-81
2023/03/15 05:26:53;;;;;;;8.80;7.10;;;2.40;99.90;;;;;;5064270;28;20298;-79
2023/03/15 05:29:21;;;;;;;8.60;7.33;;;2.40;99.90;;;;;;5063610;28;20258;-79
2023/03/15 05:31:47;;;;;;;10.17;7.70;;;2.50;99.90;;;;;;5063531;28;20263;-80
2023/03/15 05:34:13;;;;;;;11.70;7.93;;;2.50;99.90;;;;;;5082229;28;20216;-80
2023/03/15 05:36:39;;;;;;;9.67;8.27;;;2.40;99.90;;;;;;5064129;28;20206;-80
2023/03/15 05:39:04;;;;;;;9.90;8.43;;;2.50;99.90;;;;;;5081905;28;20175;-81
2023/03/15 05:41:30;;;;;;;10.20;8.63;;;2.50;99.90;;;;;;5081298;28;20201;-78
2023/03/15 05:43:56;;;;;;;11.53;8.60;;;2.50;99.90;;;;;;5059623;28;20175;-80
2023/03/15 05:46:22;;;;;;;13.13;8.57;;;2.60;99.90;;;;;;5076260;28;20206;-81
2023/03/15 05:48:48;;;;;;;14.20;9.37;;;2.60;99.90;;;;;;5076381;28;20167;-80
2023/03/15 05:51:14;;;;;;;19.30;10.63;;;2.60;99.90;;;;;;5059492;28;20190;-80
2023/03/15 05:53:40;;;;;;;12.77;9.13;;;2.60;99.90;;;;;;5077429;28;20277;-81
2023/03/15 05:56:06;;;;;;;16.80;9.67;;;2.60;99.90;;;;;;5093501;28;20175;-80
2023/03/15 05:58:32;;;;;;;15.23;10.50;;;2.60;99.90;;;;;;5081584;28;20166;-79
2023/03/15 06:01:00;;;;;;;13.53;10.93;;;2.60;99.90;;;;;;5078512;28;20201;-80
2023/03/15 06:03:25;;;;;;;13.77;10.13;;;2.70;99.90;;;;;;5099281;28;20200;-80
2023/03/15 06:05:51;;;;;;;14.67;10.80;;;2.60;99.90;;;;;;5084821;28;20194;-85
2023/03/15 06:08:16;;;;;;;15.27;10.63;;;2.70;99.90;;;;;;5097671;28;20189;-84
2023/03/15 06:10:42;;;;;;;12.57;9.53;;;2.70;99.90;;;;;;5085435;28;20179;-83
2023/03/15 06:13:08;;;;;;;12.20;10.13;;;2.70;99.90;;;;;;5101346;28;20242;-85
2023/03/15 06:15:33;;;;;;;12.50;9.97;;;2.70;99.90;;;;;;5123798;28;20186;-87
2023/03/15 06:17:59;;;;;;;14.97;10.07;;;2.70;99.90;;;;;;5101811;28;20279;-84
2023/03/15 06:20:25;;;;;;;13.83;9.57;;;2.70;99.90;;;;;;5097962;28;20182;-84
2023/03/15 06:22:50;;;;;;;13.47;9.53;;;2.70;99.90;;;;;;5097608;28;20198;-84
2023/03/15 06:25:16;;;;;;;13.57;10.27;;;2.80;99.90;;;;;;5095977;28;20552;-84
2023/03/15 06:27:41;;;;;;;15.67;10.20;;;2.70;99.90;;;;;;5081529;28;20679;-84
2023/03/15 06:30:07;;;;;;;15.00;9.97;;;2.80;99.90;;;;;;5081542;28;20205;-83
2023/03/15 06:32:33;;;;;;;14.30;10.37;;;2.80;99.90;;;;;;5076655;28;20207;-83
2023/03/15 06:34:58;;;;;;;17.80;10.73;;;2.80;99.90;;;;;;5078330;28;20479;-83
2023/03/15 06:37:24;;;;;;;17.67;10.67;;;2.90;99.90;;;;;;5079438;28;20408;-83
2023/03/15 06:39:50;;;;;;;14.47;9.53;;;2.90;99.90;;;;;;5078808;28;20193;-83
2023/03/15 06:42:16;;;;;;;14.43;10.33;;;2.90;99.90;;;;;;5080958;28;20191;-83
2023/03/15 06:44:42;;;;;;;14.67;9.97;;;2.90;99.90;;;;;;5080500;28;20645;-84
2023/03/15 06:47:09;;;;;;;15.57;10.13;;;2.90;99.90;;;;;;5080763;28;20186;-83
2023/03/15 06:49:35;;;;;;;13.87;9.93;;;3.00;99.90;;;;;;5069714;28;20277;-83
2023/03/15 06:52:01;;;;;;;15.17;10.07;;;3.00;99.90;;;;;;5083166;28;20680;-83
2023/03/15 06:54:26;;;;;;;17.37;11.00;;;3.00;99.90;;;;;;5100153;28;20162;-80
2023/03/15 06:56:52;;;;;;;15.93;10.30;;;3.00;99.90;;;;;;5082240;28;20185;-81
2023/03/15 06:59:17;;;;;;;16.47;11.43;;;3.10;99.90;;;;;;5100886;28;20201;-80
2023/03/15 07:01:43;;;;;;;15.57;11.33;;;3.00;99.90;;;;;;5081886;28;20205;-81
2023/03/15 07:04:09;;;;;;;13.80;10.10;;;3.10;99.90;;;;;;5081306;28;20174;-81
2023/03/15 07:06:35;;;;;;;16.77;11.43;;;3.10;99.90;;;;;;5088953;28;20380;-79
2023/03/15 07:09:02;;;;;;;15.20;10.67;;;3.10;99.90;;;;;;5102468;28;20228;-80
2023/03/15 07:11:28;;;;;;;14.53;10.27;;;3.10;99.90;;;;;;5095135;28;20198;-80
2023/03/15 07:13:53;;;;;;;15.50;11.03;;;3.10;99.90;;;;;;5117550;28;20239;-81
2023/03/15 07:16:19;;;;;;;17.60;10.90;;;3.10;99.90;;;;;;5084765;28;20170;-81
2023/03/15 07:18:44;;;;;;;17.80;10.93;;;3.10;99.90;;;;;;5098700;28;20233;-80
2023/03/15 07:21:10;;;;;;;14.20;10.17;;;3.10;99.90;;;;;;5077222;28;20207;-81
2023/03/15 07:23:35;;;;;;;19.80;9.10;;;3.20;99.90;;;;;;5076508;28;20270;-80
2023/03/15 07:26:01;;;;;;;13.47;9.60;;;3.20;99.90;;;;;;5096972;28;20202;-80
2023/03/15 07:28:27;;;;;;;13.40;9.57;;;3.20;99.90;;;;;;5101452;28;20162;-80
2023/03/15 07:30:58;;;;;;;15.87;9.10;;;3.20;99.90;;;;;;5098180;28;20281;-81
2023/03/15 07:33:25;;;;;;;12.13;7.50;;;3.30;99.90;;;;;;5095493;28;20491;-80
2023/03/15 07:35:52;;;;;;;13.90;7.83;;;3.20;99.90;;;;;;5080128;28;20261;-80
2023/03/15 07:38:18;;;;;;;13.30;8.13;;;3.20;99.90;;;;;;5092319;28;20182;-82
2023/03/15 07:40:44;;;;;;;13.77;7.80;;;3.30;99.90;;;;;;5100755;28;20649;-81
2023/03/15 07:43:10;;;;;;;13.90;7.97;;;3.30;99.90;;;;;;5080934;28;20186;-82
2023/03/15 07:45:35;;;;;;;11.47;7.40;;;3.40;99.90;;;;;;5081469;28;20697;-82
2023/03/15 07:48:01;;;;;;;13.23;7.93;;;3.40;99.90;;;;;;5100489;28;20178;-82
2023/03/15 07:50:26;;;;;;;14.70;7.70;;;3.40;99.90;;;;;;5078443;28;20183;-82
2023/03/15 07:52:52;;;;;;;11.40;7.33;;;3.40;99.90;;;;;;5097061;28;20269;-84
2023/03/15 07:55:18;;;;;;;9.40;6.40;;;3.50;99.90;;;;;;5095028;28;20181;-83
2023/03/15 07:57:43;;;;;;;11.37;6.97;;;3.60;99.90;;;;;;5081187;28;20186;-83
2023/03/15 08:00:12;;;;;;;12.57;7.57;;;3.60;99.90;;;;;;5097921;28;20195;-84
2023/03/15 08:02:38;;;;;;;13.40;6.80;;;3.60;99.90;;;;;;5079557;28;20197;-83
2023/03/15 08:05:04;;;;;;;10.07;6.93;;;3.70;99.90;;;;;;5099891;28;20281;-82
2023/03/15 08:07:30;;;;;;;11.03;6.37;;;3.70;99.90;;;;;;5081509;28;20166;-82
2023/03/15 08:09:57;;;;;;;13.10;6.83;;;3.80;99.90;;;;;;5109062;28;20166;-82
2023/03/15 08:12:23;;;;;;;10.80;6.97;;;3.70;99.90;;;;;;5111445;28;20194;-83
2023/03/15 08:14:50;;;;;;;13.27;6.77;;;3.70;99.90;;;;;;5113028;28;20206;-82
2023/03/15 08:17:16;;;;;;;9.17;6.37;;;3.70;99.90;;;;;;5114730;28;20242;-82
2023/03/15 08:19:42;;;;;;;13.07;7.00;;;3.80;99.90;;;;;;5094100;28;20208;-82
2023/03/15 08:22:08;;;;;;;14.07;6.70;;;3.80;99.90;;;;;;5088142;28;20194;-83
2023/03/15 08:24:34;;;;;;;11.37;6.57;;;3.90;99.90;;;;;;5101774;28;20495;-81
2023/03/15 08:27:00;;;;;;;17.10;7.03;;;3.90;99.90;;;;;;5090375;28;20208;-81
2023/03/15 08:29:26;;;;;;;10.30;6.37;;;4.00;99.90;;;;;;5121979;28;20177;-81
2023/03/15 08:31:52;;;;;;;15.80;7.10;;;4.00;99.90;;;;;;5121144;28;20571;-82
2023/03/15 08:34:18;;;;;;;8.63;5.90;;;4.00;99.90;;;;;;5102116;28;20256;-81
2023/03/15 08:36:45;;;;;;;12.50;6.43;;;4.00;99.90;;;;;;5119183;28;20178;-82
2023/03/15 08:39:11;;;;;;;12.03;6.70;;;4.10;99.90;;;;;;5101194;28;20178;-81
2023/03/15 08:41:36;;;;;;;11.73;5.80;;;4.20;99.90;;;;;;5119971;28;20261;-82
2023/03/15 08:44:02;;;;;;;9.50;5.57;;;4.20;99.90;;;;;;5120347;28;20229;-82
2023/03/15 08:46:27;;;;;;;13.60;6.07;;;4.30;99.90;;;;;;5120306;28;20664;-82
2023/03/15 08:48:53;;;;;;;14.17;6.50;;;4.30;99.90;;;;;;5101086;28;20184;-82
2023/03/15 08:51:20;;;;;;;12.07;6.10;;;4.30;99.90;;;;;;5100250;28;20664;-82
2023/03/15 08:53:46;;;;;;;10.93;5.90;;;4.30;99.90;;;;;;5101493;28;20192;-82
2023/03/15 08:56:11;;;;;;;7.60;5.17;;;4.30;99.90;;;;;;5120174;28;20177;-82
2023/03/15 08:58:37;;;;;;;10.50;6.40;;;4.30;99.90;;;;;;5100896;28;20216;-82
2023/03/15 09:01:03;;;;;;;10.63;6.47;;;4.30;99.90;;;;;;5101732;28;20656;-81
2023/03/15 09:03:31;;;;;;;9.80;6.93;;;4.30;99.90;;;;;;5102582;28;20200;-81
2023/03/15 09:05:58;;;;;;;10.80;7.53;;;4.40;99.90;;;;;;5119960;28;20193;-82
2023/03/15 09:08:24;;;;;;;18.93;8.80;;;4.40;99.90;;;;;;5101094;28;20264;-82
2023/03/15 09:10:56;;;;;;;15.00;9.70;;;4.40;99.90;;;;;;5119466;28;20161;-81
2023/03/15 09:13:22;;;;;;;24.23;11.83;;;4.40;99.90;;;;;;5118568;28;20165;-82
2023/03/15 09:15:50;;;;;;;26.07;12.43;;;4.40;99.90;;;;;;5100248;28;20661;-81
2023/03/15 09:18:16;;;;;;;18.20;10.70;;;4.30;99.90;;;;;;5116672;28;20538;-82
2023/03/15 09:20:41;;;;;;;21.97;9.63;;;4.30;99.90;;;;;;5096454;28;20184;-83
2023/03/15 09:23:07;;;;;;;13.20;9.07;;;4.30;99.90;;;;;;5099135;28;20653;-81
2023/03/15 09:25:32;;;;;;;17.63;10.27;;;4.30;99.90;;;;;;5099947;28;20197;-81
2023/03/15 09:27:58;;;;;;;18.43;11.10;;;4.40;99.90;;;;;;5118820;28;20221;-81
2023/03/15 09:30:23;;;;;;;19.07;12.50;;;4.50;99.90;;;;;;5099802;28;20165;-81
2023/03/15 09:32:50;;;;;;;17.43;12.60;;;4.50;99.90;;;;;;5102464;28;20272;-81
2023/03/15 09:35:18;;;;;;;21.37;12.37;;;4.50;99.90;;;;;;5107377;28;20635;-81
2023/03/15 09:37:44;;;;;;;18.67;12.40;;;4.70;99.90;;;;;;5106820;28;20528;-82
2023/03/15 09:40:31;;;;;;;24.00;13.17;;;4.80;99.90;;;;;;5106434;28;20173;-82
2023/03/15 09:43:06;;;;;;;17.60;9.90;;;5.00;99.90;;;;;;5124512;28;20279;-82
2023/03/15 09:46:10;;;;;;;12.60;7.90;;;5.10;99.90;;;;;;5106871;28;20192;-82
2023/03/15 09:49:11;;;;;;;10.37;6.30;;;5.20;99.90;;;;;;5124931;28;20180;-82
2023/03/15 09:51:49;;;;;;;15.67;7.23;;;5.30;99.90;;;;;;5106059;28;20583;-82
2023/03/15 09:54:26;;;;;;;16.17;9.07;;;5.30;99.90;;;;;;5106564;28;20179;-82
2023/03/15 09:57:01;;;;;;;15.23;9.20;;;5.30;99.90;;;;;;5105867;28;20169;-82
2023/03/15 09:59:33;;;;;;;13.10;5.77;;;5.30;99.90;;;;;;5124281;28;20560;-82
2023/03/15 10:02:02;;;;;;;11.53;5.47;;;5.20;99.90;;;;;;5124953;28;20223;-82
2023/03/15 10:04:36;;;;;;;6.13;4.33;;;5.10;99.90;;;;;;5105483;28;20170;-82
2023/03/15 10:07:02;;;;;;;12.77;5.67;;;5.10;99.90;;;;;;5106365;28;20205;-82
2023/03/15 10:09:34;;;;;;;9.17;5.00;;;5.10;99.90;;;;;;5124670;28;20234;-82
2023/03/15 10:12:07;;;;;;;11.07;5.70;;;5.10;99.90;;;;;;5126363;28;20725;-82
2023/03/15 10:15:05;;;;;;;8.57;5.67;;;5.20;99.90;;;;;;5125411;28;20157;-81
2023/03/15 10:18:00;;;;;;;8.90;5.37;;;5.30;99.90;;;;;;5106733;28;20185;-81
2023/03/15 10:20:37;;;;;;;10.40;4.97;;;5.20;99.90;;;;;;5124748;28;20177;-82
2023/03/15 10:23:19;;;;;;;13.27;5.60;;;5.20;99.90;;;;;;5125380;28;20158;-81
2023/03/15 10:25:47;;;;;;;7.70;4.10;;;5.30;99.90;;;;;;5107206;28;20193;-82
2023/03/15 10:28:23;;;;;;;7.63;3.73;;;5.30;99.90;;;;;;5125420;28;20166;-82
2023/03/15 10:30:51;;;;;;;8.97;4.20;;;5.40;99.90;;;;;;5108035;28;20284;-81
2023/03/15 10:33:34;;;;;;;5.90;3.90;;;5.50;99.90;;;;;;5126490;28;20192;-82
2023/03/15 10:36:01;;;;;;;8.93;4.10;;;5.60;99.90;;;;;;5108122;28;20165;-81
2023/03/15 10:38:27;;;;;;;8.77;3.80;;;5.70;44.30;;;;;;5107394;28;20184;-82
2023/03/15 10:40:58;;;;;;;12.10;4.03;;;5.80;99.90;;;;;;5126374;28;20680;-81
2023/03/15 10:43:35;;;;;;;9.93;4.17;;;6.00;99.90;;;;;;5124214;27;20174;-82
2023/03/15 10:46:20;;;;;;;10.17;3.13;;;6.10;99.90;;;;;;5122043;28;20189;-81
2023/03/15 10:49:11;;;;;;;9.00;2.73;;;6.10;5.90;;;;;;5109926;28;20165;-81
2023/03/15 10:51:41;;;;;;;9.83;3.13;;;6.10;1.00;;;;;;5101971;28;20205;-82
2023/03/15 10:54:14;;;;;;;9.23;3.90;;;6.10;1.00;;;;;;5103137;28;20158;-82
2023/03/15 10:56:49;;;;;;;7.03;2.10;;;6.20;1.00;;;;;;5120321;28;20241;-82
2023/03/15 10:59:23;;;;;;;11.80;2.90;;;6.20;1.00;;;;;;5121056;28;20338;-82
2023/03/15 11:01:52;;;;;;;4.10;2.10;;;6.10;1.00;;;;;;5102238;28;20190;-82
2023/03/15 11:04:21;;;;;;;7.83;3.90;;;6.20;1.00;;;;;;5119382;28;20571;-82
2023/03/15 11:06:55;;;;;;;9.93;4.40;;;6.30;1.00;;;;;;5120095;28;20193;-82
2023/03/15 11:09:22;;;;;;;9.33;3.33;;;6.40;1.00;;;;;;5101289;28;20213;-82
2023/03/15 11:11:57;;;;;;;5.23;2.40;;;6.50;1.00;;;;;;5119390;28;20645;-82
2023/03/15 11:14:23;;;;;;;8.63;2.90;;;6.40;1.00;;;;;;5120554;28;20181;-83
2023/03/15 11:16:53;;;;;;;5.20;1.80;;;6.40;99.90;;;;;;5120003;28;20567;-82
2023/03/15 11:19:22;;;;;;;7.97;2.50;;;6.40;99.90;;;;;;5118815;28;20176;-82
2023/03/15 11:21:49;;;;;;;7.00;2.27;;;6.40;99.90;;;;;;5120922;28;20210;-84
2023/03/15 11:24:29;;;;;;;10.40;1.87;;;6.30;99.90;;;;;;5099862;28;20358;-82
2023/03/15 11:27:00;;;;;;;8.13;1.70;;;6.40;99.90;;;;;;5118225;28;20201;-81
2023/03/15 11:29:36;;;;;;;4.40;1.70;;;6.30;99.90;;;;;;5099493;28;20552;-82
2023/03/15 11:32:21;;;;;;;9.43;1.53;;;6.40;99.90;;;;;;5116817;28;20517;-81
2023/03/15 11:34:57;;;;;;;6.83;1.80;;;6.40;99.90;;;;;;5120879;28;20150;-81
2023/03/15 11:37:31;;;;;;;3.43;1.90;;;6.40;99.90;;;;;;5107614;28;20687;-82
2023/03/15 11:40:02;;;;;;;4.77;2.10;;;6.50;99.90;;;;;;5124407;28;20149;-82
2023/03/15 11:42:34;;;;;;;5.00;2.00;;;6.50;99.90;;;;;;5107060;28;20679;-81
2023/03/15 11:45:19;;;;;;;6.10;2.00;;;6.50;99.90;;;;;;5105223;28;20166;-82
2023/03/15 11:47:51;;;;;;;4.80;1.80;;;6.50;99.90;;;;;;5122232;28;20153;-81
2023/03/15 11:50:17;;;;;;;4.13;1.50;;;6.60;99.90;;;;;;5106357;28;20196;-81
2023/03/15 11:52:47;;;;;;;4.17;1.60;;;6.60;96.70;;;;;;5104266;28;20197;-81
2023/03/15 11:55:21;;;;;;;2.53;1.27;;;6.60;12.90;;;;;;5104596;28;20168;-81
2023/03/15 11:57:48;;;;;;;7.00;1.90;;;6.50;1.00;;;;;;5127666;28;20162;-82
2023/03/15 12:00:19;;;;;;;5.50;1.30;;;6.50;1.00;;;;;;5125333;28;20187;-82
2023/03/15 12:02:58;;;;;;;6.17;1.50;;;6.60;1.00;;;;;;5104091;28;20197;-81
2023/03/15 12:06:17;;;;;;;2.60;1.30;;;6.70;99.90;;;;;;5103816;28;20710;-81
2023/03/15 12:08:51;;;;;;;4.93;1.43;;;6.70;99.90;;;;;;5005897;28;20173;-81
2023/03/15 12:11:19;;;;;;;3.50;1.53;;;6.80;1.00;;;;;;5117123;28;20201;-82
2023/03/15 12:13:57;;;;;;;4.63;1.47;;;6.90;1.00;;;;;;5121910;28;20675;-84
2023/03/15 12:16:25;;;;;;;4.23;1.40;;;7.00;99.90;;;;;;5105160;28;20628;-84
2023/03/15 12:18:53;;;;;;;6.80;1.67;;;7.00;1.00;;;;;;5103985;28;20246;-84
2023/03/15 12:21:22;;;;;;;3.40;1.63;;;7.10;1.00;;;;;;5125140;28;20212;-83
2023/03/15 12:23:55;;;;;;;8.67;2.17;;;7.30;99.90;;;;;;5125961;28;20237;-83
2023/03/15 12:26:30;;;;;;;11.80;2.73;;;7.30;18.00;;;;;;5125100;28;20181;-83
2023/03/15 12:29:17;;;;;;;6.67;2.30;;;7.40;1.00;;;;;;5126095;28;20172;-84
2023/03/15 12:32:00;;;;;;;5.90;2.20;;;7.40;23.20;;;;;;5124426;28;20276;-83
2023/03/15 12:34:44;;;;;;;7.83;2.57;;;7.50;99.90;;;;;;5106044;28;20180;-83
2023/03/15 12:37:37;;;;;;;6.37;2.43;;;7.50;99.90;;;;;;5123858;28;20206;-84
2023/03/15 12:40:15;;;;;;;6.13;2.00;;;7.60;1.00;;;;;;5105982;28;20173;-83
2023/03/15 12:42:41;;;;;;;9.63;2.10;;;7.70;10.10;;;;;;5104074;28;20189;-84
2023/03/15 12:45:18;;;;;;;8.60;1.93;;;7.70;78.80;;;;;;5121150;28;20206;-84
2023/03/15 12:47:50;;;;;;;6.07;1.70;;;7.80;99.90;;;;;;5122660;28;20180;-84
2023/03/15 12:50:35;;;;;;;3.10;1.23;;;7.80;99.90;;;;;;5123109;28;20490;-84
2023/03/15 12:53:23;;;;;;;5.20;1.50;;;7.80;99.90;;;;;;5104577;28;20256;-84
2023/03/15 12:55:50;;;;;;;2.40;1.33;;;7.80;1.00;;;;;;5102420;28;20660;-83
2023/03/15 12:58:20;;;;;;;3.30;1.60;;;7.60;1.00;;;;;;5103304;28;20213;-84
2023/03/15 13:00:47;;;;;;;7.73;1.83;;;7.60;1.00;;;;;;5103163;28;20268;-83